Time,TemperatureF,DewpointF,PressureIn,WindDirection,WindDirectionDegrees,WindSpeedMPH,WindSpeedGustMPH,Humidity,HourlyPrecipIn,Conditions,Clouds,dailyrainin,SoftwareType,DateUTC
2013-10-31 00:00:00,47.3,48.2,30.03,South,180,4.0,4.0,97,0.04,,,0.00,WeatherTracker,2013-10-31 07:00:00,
2013-10-31 00:10:00,47.3,48.2,30.03,South,180,3.0,3.0,97,0.04,,,0.00,WeatherTracker,2013-10-31 07:10:00,
2013-10-31 00:20:00,47.3,48.2,30.06,SSE,157,1.0,1.0,97,0.08,,,0.04,WeatherTracker,2013-10-31 07:20:00,
2013-10-31 00:30:00,47.3,48.2,30.06,SSE,157,3.0,3.0,98,0.08,,,0.04,WeatherTracker,2013-10-31 07:30:00,
2013-10-31 00:40:00,47.5,48.2,30.03,South,180,3.0,3.0,98,0.08,,,0.04,WeatherTracker,2013-10-31 07:40:00,
2013-10-31 00:45:00,47.5,48.2,30.03,SE,135,4.0,4.0,98,0.08,,,0.04,WeatherTracker,2013-10-31 07:45:00,
2013-10-31 00:55:00,47.5,48.2,30.03,South,180,3.0,4.0,98,0.04,,,0.04,WeatherTracker,2013-10-31 07:55:00,
2013-10-31 01:05:00,47.7,48.2,30.06,South,180,3.0,4.0,98,0.04,,,0.04,WeatherTracker,2013-10-31 08:05:00,
2013-10-31 01:15:00,47.5,48.2,30.06,SSE,157,3.0,3.0,98,0.04,,,0.04,WeatherTracker,2013-10-31 08:15:00,
2013-10-31 01:20:00,47.5,48.2,30.06,East,90,2.0,2.0,98,0.00,,,0.04,WeatherTracker,2013-10-31 08:20:00,
2013-10-31 01:30:00,47.5,48.2,30.06,SE,135,4.0,4.0,98,0.00,,,0.04,WeatherTracker,2013-10-31 08:30:00,
2013-10-31 01:40:00,47.5,48.2,30.03,South,180,3.0,3.0,98,0.04,,,0.08,WeatherTracker,2013-10-31 08:40:00,
2013-10-31 01:50:00,47.5,48.2,30.03,South,180,3.0,3.0,98,0.04,,,0.08,WeatherTracker,2013-10-31 08:50:00,
2013-10-31 01:55:00,47.5,48.2,30.03,South,180,3.0,3.0,98,0.04,,,0.08,WeatherTracker,2013-10-31 08:55:00,
2013-10-31 02:00:00,47.5,48.2,30.03,SE,135,2.0,2.0,98,0.04,,,0.08,WeatherTracker,2013-10-31 09:00:00,
2013-10-31 02:05:00,47.5,48.2,30.03,South,180,2.0,3.0,98,0.04,,,0.08,WeatherTracker,2013-10-31 09:05:00,
2013-10-31 02:15:00,47.5,48.2,30.03,South,180,3.0,3.0,98,0.04,,,0.08,WeatherTracker,2013-10-31 09:15:00,
2013-10-31 02:25:00,47.5,48.2,30.00,WSW,247,3.0,0.0,98,0.04,,,0.08,WeatherTracker,2013-10-31 09:25:00,
2013-10-31 02:30:00,47.5,48.2,30.00,South,180,3.0,3.0,98,0.04,,,0.08,WeatherTracker,2013-10-31 09:30:00,
2013-10-31 02:40:00,47.7,48.2,30.00,SE,135,2.0,2.0,98,0.05,,,0.13,WeatherTracker,2013-10-31 09:40:00,
2013-10-31 02:45:00,47.7,48.2,30.00,South,180,3.0,4.0,98,0.05,,,0.13,WeatherTracker,2013-10-31 09:45:00,
2013-10-31 02:50:00,47.7,48.2,30.00,SE,135,2.0,4.0,98,0.05,,,0.13,WeatherTracker,2013-10-31 09:50:00,
2013-10-31 03:00:00,47.7,48.2,30.00,South,180,2.0,2.0,98,0.05,,,0.13,WeatherTracker,2013-10-31 10:00:00,
2013-10-31 03:05:00,47.7,48.2,30.00,South,180,1.0,2.0,98,0.05,,,0.13,WeatherTracker,2013-10-31 10:05:00,
2013-10-31 03:15:00,47.8,48.2,30.00,SSE,157,3.0,3.0,98,0.05,,,0.13,WeatherTracker,2013-10-31 10:15:00,
2013-10-31 03:25:00,47.8,48.2,30.00,SE,135,0.0,0.0,98,0.05,,,0.13,WeatherTracker,2013-10-31 10:25:00,
2013-10-31 03:30:00,47.8,48.2,30.00,SSE,157,1.0,2.0,98,0.05,,,0.13,WeatherTracker,2013-10-31 10:30:00,
2013-10-31 03:40:00,47.8,48.2,30.00,SSE,157,0.0,0.0,98,0.00,,,0.13,WeatherTracker,2013-10-31 10:40:00,
2013-10-31 03:50:00,47.8,48.2,30.00,SE,135,0.0,0.0,98,0.00,,,0.13,WeatherTracker,2013-10-31 10:50:00,
2013-10-31 04:00:00,47.8,48.2,30.00,ESE,112,0.0,0.0,98,0.00,,,0.13,WeatherTracker,2013-10-31 11:00:00,
2013-10-31 04:10:00,48.0,48.2,30.00,ESE,112,1.0,2.0,98,0.00,,,0.13,WeatherTracker,2013-10-31 11:10:00,
2013-10-31 04:15:00,48.0,48.2,30.00,SSE,157,1.0,0.0,98,0.00,,,0.13,WeatherTracker,2013-10-31 11:15:00,
2013-10-31 04:25:00,47.8,48.2,30.00,ESE,112,0.0,0.0,98,0.00,,,0.13,WeatherTracker,2013-10-31 11:25:00,
2013-10-31 04:35:00,47.8,48.2,30.00,ESE,112,0.0,0.0,97,0.00,,,0.13,WeatherTracker,2013-10-31 11:35:00,
2013-10-31 04:45:00,47.8,48.2,30.00,East,90,0.0,0.0,97,0.00,,,0.13,WeatherTracker,2013-10-31 11:45:00,
2013-10-31 04:50:00,47.8,48.2,30.00,East,90,1.0,0.0,97,0.00,,,0.13,WeatherTracker,2013-10-31 11:50:00,
2013-10-31 05:00:00,47.8,48.2,30.00,East,90,0.0,0.0,97,0.00,,,0.13,WeatherTracker,2013-10-31 12:00:00,
2013-10-31 05:10:00,47.8,48.2,30.00,East,90,0.0,0.0,97,0.00,,,0.13,WeatherTracker,2013-10-31 12:10:00,
2013-10-31 05:15:00,47.8,48.2,30.00,East,90,0.0,0.0,97,0.00,,,0.13,WeatherTracker,2013-10-31 12:15:00,
2013-10-31 05:25:00,47.8,48.2,30.00,SE,135,0.0,0.0,97,0.00,,,0.13,WeatherTracker,2013-10-31 12:25:00,
2013-10-31 05:35:00,47.8,48.2,30.00,ESE,112,0.0,0.0,97,0.00,,,0.13,WeatherTracker,2013-10-31 12:35:00,
2013-10-31 05:45:00,47.8,48.2,30.00,SSE,157,0.0,0.0,97,0.00,,,0.13,WeatherTracker,2013-10-31 12:45:00,
2013-10-31 05:55:00,47.8,48.2,30.00,SE,135,0.0,0.0,97,0.00,,,0.13,WeatherTracker,2013-10-31 12:55:00,
2013-10-31 06:00:00,47.8,48.2,30.00,SE,135,0.0,0.0,97,0.00,,,0.13,WeatherTracker,2013-10-31 13:00:00,
2013-10-31 06:10:00,47.8,48.2,30.00,SE,135,0.0,0.0,97,0.00,,,0.13,WeatherTracker,2013-10-31 13:10:00,
2013-10-31 06:20:00,47.8,48.2,30.00,South,180,0.0,0.0,97,0.00,,,0.13,WeatherTracker,2013-10-31 13:20:00,
2013-10-31 06:30:00,47.8,48.2,30.00,SE,135,0.0,0.0,97,0.00,,,0.13,WeatherTracker,2013-10-31 13:30:00,
2013-10-31 06:35:00,47.8,48.2,30.00,SE,135,1.0,2.0,97,0.00,,,0.13,WeatherTracker,2013-10-31 13:35:00,
2013-10-31 06:40:00,47.8,48.2,30.00,SSE,157,0.0,3.0,97,0.00,,,0.13,WeatherTracker,2013-10-31 13:40:00,
2013-10-31 06:45:00,48.0,48.2,30.00,SE,135,2.0,2.0,97,0.00,,,0.13,WeatherTracker,2013-10-31 13:45:00,
2013-10-31 06:55:00,47.8,48.2,30.00,ESE,112,1.0,0.0,97,0.00,,,0.13,WeatherTracker,2013-10-31 13:55:00,
2013-10-31 07:05:00,48.0,48.2,30.00,SE,135,1.0,0.0,97,0.00,,,0.13,WeatherTracker,2013-10-31 14:05:00,
2013-10-31 07:10:00,48.0,48.2,30.00,South,180,0.0,1.0,97,0.00,,,0.13,WeatherTracker,2013-10-31 14:10:00,
2013-10-31 07:20:00,48.0,48.2,30.00,South,180,0.0,1.0,97,0.00,,,0.13,WeatherTracker,2013-10-31 14:20:00,
2013-10-31 07:25:00,48.0,48.2,30.00,South,180,2.0,2.0,97,0.00,,,0.13,WeatherTracker,2013-10-31 14:25:00,
2013-10-31 07:30:00,48.0,48.2,30.00,SE,135,0.0,0.0,97,0.00,,,0.13,WeatherTracker,2013-10-31 14:30:00,
2013-10-31 07:40:00,48.0,48.2,30.00,SE,135,1.0,1.0,97,0.00,,,0.13,WeatherTracker,2013-10-31 14:40:00,
2013-10-31 07:45:00,48.0,48.2,30.00,SE,135,0.0,0.0,97,0.00,,,0.13,WeatherTracker,2013-10-31 14:45:00,
2013-10-31 07:55:00,48.0,48.2,30.03,ESE,112,0.0,0.0,97,0.00,,,0.13,WeatherTracker,2013-10-31 14:55:00,
2013-10-31 08:05:00,48.0,48.2,30.06,ESE,112,0.0,0.0,97,0.00,,,0.13,WeatherTracker,2013-10-31 15:05:00,
2013-10-31 08:10:00,48.0,48.2,30.06,East,90,0.0,0.0,97,0.00,,,0.13,WeatherTracker,2013-10-31 15:10:00,
2013-10-31 08:15:00,48.0,48.2,30.06,SE,135,0.0,0.0,97,0.00,,,0.13,WeatherTracker,2013-10-31 15:15:00,
2013-10-31 08:20:00,48.0,48.2,30.03,ESE,112,0.0,0.0,97,0.00,,,0.13,WeatherTracker,2013-10-31 15:20:00,
2013-10-31 08:30:00,48.2,48.2,30.03,SE,135,0.0,0.0,97,0.00,,,0.13,WeatherTracker,2013-10-31 15:30:00,
2013-10-31 08:40:00,48.2,48.2,30.03,SE,135,0.0,0.0,97,0.00,,,0.13,WeatherTracker,2013-10-31 15:40:00,
2013-10-31 08:45:00,48.4,48.2,30.03,SE,135,0.0,0.0,97,0.00,,,0.13,WeatherTracker,2013-10-31 15:45:00,
2013-10-31 08:50:00,48.4,48.2,30.03,ESE,112,0.0,0.0,97,0.00,,,0.13,WeatherTracker,2013-10-31 15:50:00,
2013-10-31 08:55:00,48.6,48.2,30.03,SE,135,0.0,0.0,97,0.00,,,0.13,WeatherTracker,2013-10-31 15:55:00,
2013-10-31 09:05:00,48.6,48.2,30.06,South,180,1.0,3.0,97,0.00,,,0.13,WeatherTracker,2013-10-31 16:05:00,
2013-10-31 09:10:00,48.7,48.2,30.06,SE,135,2.0,2.0,97,0.00,,,0.13,WeatherTracker,2013-10-31 16:10:00,
2013-10-31 09:15:00,48.7,48.2,30.06,SE,135,1.0,0.0,97,0.00,,,0.13,WeatherTracker,2013-10-31 16:15:00,
2013-10-31 09:20:00,48.7,48.2,30.06,SSE,157,0.0,0.0,97,0.00,,,0.13,WeatherTracker,2013-10-31 16:20:00,
2013-10-31 09:30:00,48.9,48.2,30.06,SE,135,0.0,0.0,97,0.00,,,0.13,WeatherTracker,2013-10-31 16:30:00,
2013-10-31 09:40:00,49.1,48.2,30.09,ESE,112,0.0,0.0,97,0.00,,,0.13,WeatherTracker,2013-10-31 16:40:00,
2013-10-31 09:50:00,49.3,48.2,30.09,SE,135,0.0,0.0,97,0.00,,,0.13,WeatherTracker,2013-10-31 16:50:00,
2013-10-31 09:55:00,49.3,48.2,30.09,SE,135,0.0,0.0,97,0.00,,,0.13,WeatherTracker,2013-10-31 16:55:00,
2013-10-31 10:05:00,49.3,48.2,30.09,SE,135,0.0,0.0,97,0.00,,,0.13,WeatherTracker,2013-10-31 17:05:00,
2013-10-31 10:15:00,49.5,48.2,30.09,East,90,0.0,0.0,97,0.00,,,0.13,WeatherTracker,2013-10-31 17:15:00,
2013-10-31 10:25:00,49.8,50.0,30.12,SE,135,0.0,0.0,97,0.00,,,0.13,WeatherTracker,2013-10-31 17:25:00,
2013-10-31 10:30:00,50.0,50.0,30.12,SE,135,0.0,0.0,97,0.00,,,0.13,WeatherTracker,2013-10-31 17:30:00,
2013-10-31 10:40:00,50.2,50.0,30.12,South,180,0.0,0.0,97,0.00,,,0.13,WeatherTracker,2013-10-31 17:40:00,
2013-10-31 10:50:00,50.2,50.0,30.09,SE,135,0.0,0.0,96,0.00,,,0.13,WeatherTracker,2013-10-31 17:50:00,
2013-10-31 10:55:00,50.2,50.0,30.09,East,90,0.0,0.0,96,0.00,,,0.13,WeatherTracker,2013-10-31 17:55:00,
2013-10-31 11:05:00,50.2,50.0,30.12,East,90,0.0,0.0,96,0.00,,,0.13,WeatherTracker,2013-10-31 18:05:00,
2013-10-31 11:15:00,50.2,50.0,30.12,East,90,0.0,0.0,96,0.00,,,0.13,WeatherTracker,2013-10-31 18:15:00,
2013-10-31 11:20:00,50.2,50.0,30.15,South,180,0.0,0.0,96,0.00,,,0.13,WeatherTracker,2013-10-31 18:20:00,
2013-10-31 11:25:00,50.2,50.0,30.15,East,90,0.0,0.0,96,0.00,,,0.13,WeatherTracker,2013-10-31 18:25:00,
2013-10-31 11:35:00,50.4,50.0,30.12,East,90,0.0,0.0,96,0.00,,,0.13,WeatherTracker,2013-10-31 18:35:00,
2013-10-31 11:40:00,50.4,50.0,30.12,East,90,0.0,0.0,96,0.00,,,0.13,WeatherTracker,2013-10-31 18:40:00,
2013-10-31 11:50:00,50.7,50.0,30.12,ENE,67,0.0,0.0,96,0.00,,,0.13,WeatherTracker,2013-10-31 18:50:00,
2013-10-31 12:00:00,50.9,50.0,30.12,NE,45,0.0,0.0,95,0.00,,,0.13,WeatherTracker,2013-10-31 19:00:00,
2013-10-31 12:05:00,51.1,50.0,30.15,North,0,0.0,1.0,95,0.00,,,0.13,WeatherTracker,2013-10-31 19:05:00,
2013-10-31 12:10:00,51.3,50.0,30.15,SE,135,0.0,0.0,95,0.00,,,0.13,WeatherTracker,2013-10-31 19:10:00,
2013-10-31 12:20:00,51.4,50.0,30.15,SE,135,0.0,1.0,95,0.00,,,0.13,WeatherTracker,2013-10-31 19:20:00,
2013-10-31 12:25:00,50.9,50.0,30.15,SE,135,2.0,2.0,94,0.00,,,0.13,WeatherTracker,2013-10-31 19:25:00,
2013-10-31 12:35:00,51.1,50.0,30.15,ESE,112,0.0,0.0,94,0.00,,,0.13,WeatherTracker,2013-10-31 19:35:00,
2013-10-31 12:45:00,51.3,50.0,30.15,East,90,0.0,0.0,94,0.00,,,0.13,WeatherTracker,2013-10-31 19:45:00,
2013-10-31 12:50:00,51.4,50.0,30.12,NE,45,0.0,0.0,94,0.00,,,0.13,WeatherTracker,2013-10-31 19:50:00,
2013-10-31 13:00:00,52.0,50.0,30.12,NE,45,0.0,0.0,94,0.00,,,0.13,WeatherTracker,2013-10-31 20:00:00,
2013-10-31 13:10:00,53.1,51.8,30.12,NW,315,1.0,0.0,93,0.00,,,0.13,WeatherTracker,2013-10-31 20:10:00,
2013-10-31 13:20:00,53.8,51.8,30.15,NNE,22,0.0,0.0,92,0.00,,,0.13,WeatherTracker,2013-10-31 20:20:00,
2013-10-31 13:25:00,54.0,51.8,30.15,NNE,22,0.0,0.0,91,0.00,,,0.13,WeatherTracker,2013-10-31 20:25:00,
2013-10-31 13:30:00,54.1,51.8,30.15,NW,315,0.0,0.0,90,0.00,,,0.13,WeatherTracker,2013-10-31 20:30:00,
2013-10-31 13:35:00,54.1,51.8,30.15,NE,45,0.0,0.0,89,0.00,,,0.13,WeatherTracker,2013-10-31 20:35:00,
2013-10-31 13:45:00,54.0,50.0,30.15,WNW,292,0.0,0.0,88,0.00,,,0.13,WeatherTracker,2013-10-31 20:45:00,
2013-10-31 13:55:00,53.4,50.0,30.15,WNW,292,0.0,0.0,87,0.00,,,0.13,WeatherTracker,2013-10-31 20:55:00,
2013-10-31 14:00:00,53.4,50.0,30.15,NW,315,0.0,0.0,87,0.00,,,0.13,WeatherTracker,2013-10-31 21:00:00,
2013-10-31 14:10:00,53.8,50.0,30.12,NNW,337,0.0,0.0,87,0.00,,,0.13,WeatherTracker,2013-10-31 21:10:00,
2013-10-31 14:15:00,53.4,50.0,30.12,WNW,292,0.0,0.0,87,0.00,,,0.13,WeatherTracker,2013-10-31 21:15:00,
2013-10-31 14:20:00,53.1,48.2,30.15,NNE,22,0.0,0.0,86,0.00,,,0.13,WeatherTracker,2013-10-31 21:20:00,
2013-10-31 14:30:00,53.1,50.0,30.15,NNW,337,0.0,4.0,87,0.00,,,0.13,WeatherTracker,2013-10-31 21:30:00,
2013-10-31 14:35:00,52.9,48.2,30.15,NNE,22,0.0,0.0,86,0.00,,,0.13,WeatherTracker,2013-10-31 21:35:00,
2013-10-31 14:45:00,52.9,50.0,30.15,North,0,1.0,0.0,87,0.00,,,0.13,WeatherTracker,2013-10-31 21:45:00,
2013-10-31 14:55:00,52.7,50.0,30.15,North,0,0.0,0.0,87,0.00,,,0.13,WeatherTracker,2013-10-31 21:55:00,
2013-10-31 15:05:00,52.7,50.0,30.15,North,0,1.0,0.0,88,0.00,,,0.13,WeatherTracker,2013-10-31 22:05:00,
2013-10-31 15:10:00,52.9,50.0,30.15,NNW,337,0.0,0.0,88,0.00,,,0.13,WeatherTracker,2013-10-31 22:10:00,
2013-10-31 15:20:00,53.1,50.0,30.15,WNW,292,1.0,1.0,87,0.00,,,0.13,WeatherTracker,2013-10-31 22:20:00,
2013-10-31 15:30:00,52.5,48.2,30.15,NE,45,1.0,0.0,87,0.00,,,0.13,WeatherTracker,2013-10-31 22:30:00,
2013-10-31 15:40:00,52.9,50.0,30.18,North,0,0.0,0.0,88,0.00,,,0.13,WeatherTracker,2013-10-31 22:40:00,
2013-10-31 15:45:00,52.9,50.0,30.18,NE,45,0.0,0.0,88,0.00,,,0.13,WeatherTracker,2013-10-31 22:45:00,
2013-10-31 15:55:00,52.5,48.2,30.15,NW,315,1.0,1.0,88,0.00,,,0.13,WeatherTracker,2013-10-31 22:55:00,
2013-10-31 16:00:00,52.5,48.2,30.15,North,0,1.0,0.0,88,0.00,,,0.13,WeatherTracker,2013-10-31 23:00:00,
2013-10-31 16:05:00,52.7,50.0,30.15,East,90,0.0,1.0,88,0.00,,,0.13,WeatherTracker,2013-10-31 23:05:00,
2013-10-31 16:15:00,52.7,50.0,30.15,WNW,292,1.0,1.0,88,0.00,,,0.13,WeatherTracker,2013-10-31 23:15:00,
2013-10-31 16:20:00,52.7,50.0,30.15,NNW,337,0.0,0.0,88,0.00,,,0.13,WeatherTracker,2013-10-31 23:20:00,
2013-10-31 16:30:00,52.5,48.2,30.15,ENE,67,0.0,0.0,88,0.00,,,0.13,WeatherTracker,2013-10-31 23:30:00,
2013-10-31 16:35:00,52.7,50.0,30.15,WNW,292,0.0,0.0,89,0.00,,,0.13,WeatherTracker,2013-10-31 23:35:00,
2013-10-31 16:40:00,52.5,48.2,30.15,NE,45,0.0,0.0,88,0.00,,,0.13,WeatherTracker,2013-10-31 23:40:00,
2013-10-31 16:45:00,52.5,48.2,30.15,North,0,0.0,0.0,88,0.00,,,0.13,WeatherTracker,2013-10-31 23:45:00,
2013-10-31 16:50:00,52.3,48.2,30.15,NNW,337,0.0,0.0,88,0.00,,,0.13,WeatherTracker,2013-10-31 23:50:00,
2013-10-31 17:00:00,52.3,50.0,30.15,East,90,0.0,0.0,89,0.00,,,0.13,WeatherTracker,2013-11-01 00:00:00,
2013-10-31 17:05:00,52.2,50.0,30.15,NNE,22,0.0,0.0,89,0.00,,,0.13,WeatherTracker,2013-11-01 00:05:00,
2013-10-31 17:15:00,52.0,48.2,30.15,East,90,0.0,0.0,89,0.00,,,0.13,WeatherTracker,2013-11-01 00:15:00,
2013-10-31 17:25:00,51.6,48.2,30.18,East,90,0.0,0.0,90,0.00,,,0.13,WeatherTracker,2013-11-01 00:25:00,
2013-10-31 17:35:00,51.4,48.2,30.18,NE,45,0.0,0.0,91,0.00,,,0.13,WeatherTracker,2013-11-01 00:35:00,
2013-10-31 17:40:00,51.4,48.2,30.18,NE,45,0.0,0.0,90,0.00,,,0.13,WeatherTracker,2013-11-01 00:40:00,
2013-10-31 17:50:00,51.3,48.2,30.18,ENE,67,0.0,0.0,91,0.00,,,0.13,WeatherTracker,2013-11-01 00:50:00,
2013-10-31 18:00:00,51.1,48.2,30.18,East,90,0.0,0.0,91,0.00,,,0.13,WeatherTracker,2013-11-01 01:00:00,
2013-10-31 18:05:00,51.1,48.2,30.18,East,90,0.0,0.0,92,0.00,,,0.13,WeatherTracker,2013-11-01 01:05:00,
2013-10-31 18:15:00,50.9,48.2,30.18,East,90,0.0,0.0,92,0.00,,,0.13,WeatherTracker,2013-11-01 01:15:00,
2013-10-31 18:25:00,50.7,48.2,30.15,East,90,0.0,0.0,92,0.00,,,0.13,WeatherTracker,2013-11-01 01:25:00,
2013-10-31 18:35:00,50.5,48.2,30.18,East,90,0.0,0.0,92,0.00,,,0.13,WeatherTracker,2013-11-01 01:35:00,
2013-10-31 18:45:00,50.4,48.2,30.18,East,90,0.0,0.0,92,0.00,,,0.13,WeatherTracker,2013-11-01 01:45:00,
2013-10-31 18:50:00,50.2,48.2,30.18,East,90,0.0,0.0,92,0.00,,,0.13,WeatherTracker,2013-11-01 01:50:00,
2013-10-31 19:00:00,50.0,48.2,30.18,East,90,0.0,0.0,93,0.00,,,0.13,WeatherTracker,2013-11-01 02:00:00,
2013-10-31 19:10:00,49.8,48.2,30.18,East,90,0.0,0.0,93,0.00,,,0.13,WeatherTracker,2013-11-01 02:10:00,
2013-10-31 19:15:00,49.8,48.2,30.18,East,90,0.0,0.0,93,0.00,,,0.13,WeatherTracker,2013-11-01 02:15:00,
2013-10-31 19:25:00,49.6,48.2,30.15,East,90,0.0,0.0,94,0.00,,,0.13,WeatherTracker,2013-11-01 02:25:00,
2013-10-31 19:35:00,49.6,48.2,30.18,East,90,1.0,0.0,94,0.00,,,0.13,WeatherTracker,2013-11-01 02:35:00,
2013-10-31 19:45:00,49.8,48.2,30.18,SE,135,1.0,1.0,94,0.00,,,0.13,WeatherTracker,2013-11-01 02:45:00,
2013-10-31 19:55:00,49.8,48.2,30.18,ESE,112,0.0,0.0,95,0.00,,,0.13,WeatherTracker,2013-11-01 02:55:00,
2013-10-31 20:00:00,49.6,48.2,30.18,ESE,112,0.0,0.0,95,0.00,,,0.13,WeatherTracker,2013-11-01 03:00:00,
2013-10-31 20:10:00,49.6,48.2,30.18,ESE,112,0.0,0.0,95,0.00,,,0.13,WeatherTracker,2013-11-01 03:10:00,
2013-10-31 20:20:00,49.6,48.2,30.18,SE,135,0.0,0.0,95,0.00,,,0.13,WeatherTracker,2013-11-01 03:20:00,
2013-10-31 20:25:00,49.8,48.2,30.18,East,90,0.0,0.0,95,0.00,,,0.13,WeatherTracker,2013-11-01 03:25:00,
2013-10-31 20:35:00,49.6,48.2,30.18,East,90,0.0,0.0,95,0.00,,,0.13,WeatherTracker,2013-11-01 03:35:00,
2013-10-31 20:40:00,49.6,48.2,30.18,East,90,0.0,0.0,95,0.00,,,0.13,WeatherTracker,2013-11-01 03:40:00,
2013-10-31 20:45:00,49.6,48.2,30.18,East,90,0.0,0.0,95,0.00,,,0.13,WeatherTracker,2013-11-01 03:45:00,
2013-10-31 20:55:00,49.5,48.2,30.18,SSE,157,0.0,0.0,95,0.00,,,0.13,WeatherTracker,2013-11-01 03:55:00,
2013-10-31 21:00:00,49.5,48.2,30.18,ESE,112,0.0,0.0,95,0.00,,,0.13,WeatherTracker,2013-11-01 04:00:00,
2013-10-31 21:05:00,49.5,48.2,30.18,ESE,112,0.0,0.0,95,0.00,,,0.13,WeatherTracker,2013-11-01 04:05:00,
2013-10-31 21:10:00,49.5,48.2,30.18,ESE,112,0.0,0.0,95,0.00,,,0.13,WeatherTracker,2013-11-01 04:10:00,
2013-10-31 21:15:00,49.5,48.2,30.18,SE,135,0.0,0.0,95,0.00,,,0.13,WeatherTracker,2013-11-01 04:15:00,
2013-10-31 21:20:00,49.5,48.2,30.18,ESE,112,0.0,0.0,95,0.00,,,0.13,WeatherTracker,2013-11-01 04:20:00,
2013-10-31 21:30:00,49.5,48.2,30.18,East,90,0.0,0.0,95,0.00,,,0.13,WeatherTracker,2013-11-01 04:30:00,
2013-10-31 21:35:00,49.5,48.2,30.21,East,90,0.0,0.0,96,0.00,,,0.13,WeatherTracker,2013-11-01 04:35:00,
2013-10-31 21:45:00,49.6,48.2,30.21,East,90,0.0,0.0,96,0.00,,,0.13,WeatherTracker,2013-11-01 04:45:00,
2013-10-31 21:55:00,49.6,48.2,30.21,East,90,0.0,0.0,96,0.00,,,0.13,WeatherTracker,2013-11-01 04:55:00,
2013-10-31 22:00:00,49.6,48.2,30.21,SE,135,0.0,0.0,96,0.00,,,0.13,WeatherTracker,2013-11-01 05:00:00,
2013-10-31 22:05:00,49.6,48.2,30.18,ESE,112,0.0,0.0,96,0.00,,,0.13,WeatherTracker,2013-11-01 05:05:00,
2013-10-31 22:15:00,49.6,48.2,30.18,ESE,112,0.0,0.0,96,0.00,,,0.13,WeatherTracker,2013-11-01 05:15:00,
2013-10-31 22:20:00,49.6,48.2,30.18,East,90,0.0,0.0,96,0.00,,,0.13,WeatherTracker,2013-11-01 05:20:00,
2013-10-31 22:30:00,49.6,48.2,30.18,ESE,112,0.0,0.0,96,0.00,,,0.13,WeatherTracker,2013-11-01 05:30:00,
2013-10-31 22:35:00,49.6,48.2,30.21,ESE,112,0.0,0.0,96,0.00,,,0.13,WeatherTracker,2013-11-01 05:35:00,
2013-10-31 22:40:00,49.6,48.2,30.21,SSE,157,0.0,0.0,96,0.00,,,0.13,WeatherTracker,2013-11-01 05:40:00,
2013-10-31 22:45:00,49.8,50.0,30.21,East,90,0.0,0.0,96,0.00,,,0.13,WeatherTracker,2013-11-01 05:45:00,
2013-10-31 22:55:00,49.8,50.0,30.24,East,90,0.0,0.0,96,0.00,,,0.13,WeatherTracker,2013-11-01 05:55:00,
2013-10-31 23:05:00,50.0,50.0,30.21,SE,135,0.0,0.0,96,0.00,,,0.13,WeatherTracker,2013-11-01 06:05:00,
2013-10-31 23:15:00,50.0,50.0,30.21,SE,135,1.0,0.0,96,0.00,,,0.13,WeatherTracker,2013-11-01 06:15:00,
2013-10-31 23:20:00,50.0,50.0,30.21,ESE,112,0.0,0.0,96,0.00,,,0.13,WeatherTracker,2013-11-01 06:20:00,
2013-10-31 23:30:00,50.0,50.0,30.21,South,180,0.0,0.0,96,0.00,,,0.13,WeatherTracker,2013-11-01 06:30:00,
2013-10-31 23:40:00,50.0,50.0,30.21,ESE,112,0.0,0.0,96,0.00,,,0.13,WeatherTracker,2013-11-01 06:40:00,
2013-10-31 23:50:00,50.0,50.0,30.18,East,90,0.0,0.0,96,0.00,,,0.13,WeatherTracker,2013-11-01 06:50:00,
2013-10-31 23:55:00,50.0,50.0,30.18,South,180,1.0,3.0,96,0.00,,,0.13,WeatherTracker,2013-11-01 06:55:00,